sensor_id;sensor_type;location;lat;lon;timestamp;P1;durP1;ratioP1;P2;durP2;ratioP2
35917;SDS011;22011;59.912;30.300;2023-02-26T00:01:39;4.82;;;2.90;;
35917;SDS011;22011;59.912;30.300;2023-02-26T00:04:08;4.82;;;2.65;;
35917;SDS011;22011;59.912;30.300;2023-02-26T00:06:37;4.68;;;3.35;;
35917;SDS011;22011;59.912;30.300;2023-02-26T00:09:17;5.07;;;3.22;;
35917;SDS011;22011;59.912;30.300;2023-02-26T00:11:45;4.05;;;2.70;;
35917;SDS011;22011;59.912;30.300;2023-02-26T00:14:15;4.88;;;3.05;;
35917;SDS011;22011;59.912;30.300;2023-02-26T00:16:43;3.72;;;2.80;;
35917;SDS011;22011;59.912;30.300;2023-02-26T00:19:16;6.07;;;3.97;;
35917;SDS011;22011;59.912;30.300;2023-02-26T00:21:45;6.75;;;3.35;;
35917;SDS011;22011;59.912;30.300;2023-02-26T00:24:12;5.57;;;3.00;;
35917;SDS011;22011;59.912;30.300;2023-02-26T00:26:40;4.47;;;2.83;;
35917;SDS011;22011;59.912;30.300;2023-02-26T00:29:08;5.00;;;3.17;;
35917;SDS011;22011;59.912;30.300;2023-02-26T00:31:37;5.78;;;4.05;;
35917;SDS011;22011;59.912;30.300;2023-02-26T00:34:09;4.65;;;3.03;;
35917;SDS011;22011;59.912;30.300;2023-02-26T00:36:39;4.22;;;2.75;;
35917;SDS011;22011;59.912;30.300;2023-02-26T00:39:14;7.43;;;3.38;;
35917;SDS011;22011;59.912;30.300;2023-02-26T00:41:55;5.38;;;3.08;;
35917;SDS011;22011;59.912;30.300;2023-02-26T00:44:23;4.68;;;3.10;;
35917;SDS011;22011;59.912;30.300;2023-02-26T00:46:53;5.72;;;3.08;;
35917;SDS011;22011;59.912;30.300;2023-02-26T00:49:26;6.57;;;3.25;;
35917;SDS011;22011;59.912;30.300;2023-02-26T00:52:04;5.63;;;3.67;;
35917;SDS011;22011;59.912;30.300;2023-02-26T00:54:36;5.00;;;3.05;;
35917;SDS011;22011;59.912;30.300;2023-02-26T00:57:04;6.32;;;3.38;;
35917;SDS011;22011;59.912;30.300;2023-02-26T00:59:31;9.32;;;3.47;;
35917;SDS011;22011;59.912;30.300;2023-02-26T01:02:02;5.55;;;3.55;;
35917;SDS011;22011;59.912;30.300;2023-02-26T01:04:29;7.10;;;3.72;;
35917;SDS011;22011;59.912;30.300;2023-02-26T01:06:58;7.15;;;3.67;;
35917;SDS011;22011;59.912;30.300;2023-02-26T01:09:26;4.97;;;3.03;;
35917;SDS011;22011;59.912;30.300;2023-02-26T01:11:56;6.83;;;3.50;;
35917;SDS011;22011;59.912;30.300;2023-02-26T01:14:26;7.38;;;3.75;;
35917;SDS011;22011;59.912;30.300;2023-02-26T01:16:56;5.55;;;3.45;;
35917;SDS011;22011;59.912;30.300;2023-02-26T01:19:31;7.32;;;3.80;;
35917;SDS011;22011;59.912;30.300;2023-02-26T01:22:03;4.78;;;2.83;;
35917;SDS011;22011;59.912;30.300;2023-02-26T01:24:36;6.18;;;3.33;;
35917;SDS011;22011;59.912;30.300;2023-02-26T01:27:03;5.85;;;3.67;;
35917;SDS011;22011;59.912;30.300;2023-02-26T01:29:32;5.47;;;3.20;;
35917;SDS011;22011;59.912;30.300;2023-02-26T01:32:02;6.82;;;4.18;;
35917;SDS011;22011;59.912;30.300;2023-02-26T01:34:38;5.88;;;3.47;;
35917;SDS011;22011;59.912;30.300;2023-02-26T01:37:13;6.45;;;3.60;;
35917;SDS011;22011;59.912;30.300;2023-02-26T01:39:52;6.53;;;3.40;;
35917;SDS011;22011;59.912;30.300;2023-02-26T01:42:32;6.78;;;4.07;;
35917;SDS011;22011;59.912;30.300;2023-02-26T01:45:09;5.85;;;3.67;;
35917;SDS011;22011;59.912;30.300;2023-02-26T01:47:42;5.40;;;3.85;;
35917;SDS011;22011;59.912;30.300;2023-02-26T01:50:18;6.03;;;3.58;;
35917;SDS011;22011;59.912;30.300;2023-02-26T01:55:43;6.78;;;3.80;;
35917;SDS011;22011;59.912;30.300;2023-02-26T01:58:15;6.72;;;3.45;;
35917;SDS011;22011;59.912;30.300;2023-02-26T02:00:43;7.75;;;4.20;;
35917;SDS011;22011;59.912;30.300;2023-02-26T02:03:11;5.63;;;3.67;;
35917;SDS011;22011;59.912;30.300;2023-02-26T02:05:41;5.40;;;3.40;;
35917;SDS011;22011;59.912;30.300;2023-02-26T02:08:13;6.18;;;3.58;;
35917;SDS011;22011;59.912;30.300;2023-02-26T02:10:41;6.38;;;3.65;;
35917;SDS011;22011;59.912;30.300;2023-02-26T02:13:14;8.85;;;3.25;;
35917;SDS011;22011;59.912;30.300;2023-02-26T02:15:54;5.18;;;3.42;;
35917;SDS011;22011;59.912;30.300;2023-02-26T02:18:36;6.53;;;3.70;;
35917;SDS011;22011;59.912;30.300;2023-02-26T02:24:24;11.82;;;4.15;;
35917;SDS011;22011;59.912;30.300;2023-02-26T02:27:02;6.95;;;3.70;;
35917;SDS011;22011;59.912;30.300;2023-02-26T02:32:38;7.15;;;4.05;;
35917;SDS011;22011;59.912;30.300;2023-02-26T02:35:14;5.68;;;3.78;;
35917;SDS011;22011;59.912;30.300;2023-02-26T02:37:47;5.20;;;3.95;;
35917;SDS011;22011;59.912;30.300;2023-02-26T02:40:21;6.95;;;4.28;;
35917;SDS011;22011;59.912;30.300;2023-02-26T02:42:52;7.60;;;4.05;;
35917;SDS011;22011;59.912;30.300;2023-02-26T02:45:25;6.25;;;3.97;;
35917;SDS011;22011;59.912;30.300;2023-02-26T02:48:00;7.50;;;4.28;;
35917;SDS011;22011;59.912;30.300;2023-02-26T02:50:33;5.68;;;3.90;;
35917;SDS011;22011;59.912;30.300;2023-02-26T02:53:05;5.65;;;3.60;;
35917;SDS011;22011;59.912;30.300;2023-02-26T02:55:40;7.85;;;3.85;;
35917;SDS011;22011;59.912;30.300;2023-02-26T02:58:11;6.07;;;3.53;;
35917;SDS011;22011;59.912;30.300;2023-02-26T03:00:44;6.25;;;3.85;;
35917;SDS011;22011;59.912;30.300;2023-02-26T03:03:17;7.43;;;3.78;;
35917;SDS011;22011;59.912;30.300;2023-02-26T03:05:51;6.45;;;3.83;;
35917;SDS011;22011;59.912;30.300;2023-02-26T03:08:21;7.10;;;4.05;;
35917;SDS011;22011;59.912;30.300;2023-02-26T03:10:52;7.35;;;4.50;;
35917;SDS011;22011;59.912;30.300;2023-02-26T03:13:21;7.00;;;4.28;;
35917;SDS011;22011;59.912;30.300;2023-02-26T03:16:02;6.57;;;4.07;;
35917;SDS011;22011;59.912;30.300;2023-02-26T03:18:44;6.95;;;3.88;;
35917;SDS011;22011;59.912;30.300;2023-02-26T03:21:19;6.38;;;4.00;;
35917;SDS011;22011;59.912;30.300;2023-02-26T03:23:54;6.47;;;4.30;;
35917;SDS011;22011;59.912;30.300;2023-02-26T03:26:28;8.82;;;5.05;;
35917;SDS011;22011;59.912;30.300;2023-02-26T03:29:04;9.45;;;4.80;;
35917;SDS011;22011;59.912;30.300;2023-02-26T03:31:35;9.60;;;4.50;;
35917;SDS011;22011;59.912;30.300;2023-02-26T03:34:11;7.45;;;4.97;;
35917;SDS011;22011;59.912;30.300;2023-02-26T03:36:44;8.15;;;4.55;;
35917;SDS011;22011;59.912;30.300;2023-02-26T03:39:19;7.65;;;4.45;;
35917;SDS011;22011;59.912;30.300;2023-02-26T03:41:56;7.93;;;4.68;;
35917;SDS011;22011;59.912;30.300;2023-02-26T03:44:35;5.82;;;3.90;;
35917;SDS011;22011;59.912;30.300;2023-02-26T03:47:10;6.72;;;4.40;;
35917;SDS011;22011;59.912;30.300;2023-02-26T03:49:44;6.35;;;3.70;;
35917;SDS011;22011;59.912;30.300;2023-02-26T03:52:19;7.10;;;4.28;;
35917;SDS011;22011;59.912;30.300;2023-02-26T03:55:16;12.77;;;4.47;;
35917;SDS011;22011;59.912;30.300;2023-02-26T03:58:00;8.05;;;4.75;;
35917;SDS011;22011;59.912;30.300;2023-02-26T04:00:45;6.50;;;4.03;;
35917;SDS011;22011;59.912;30.300;2023-02-26T04:03:23;7.38;;;4.05;;
35917;SDS011;22011;59.912;30.300;2023-02-26T04:05:56;7.63;;;4.22;;
35917;SDS011;22011;59.912;30.300;2023-02-26T04:08:27;7.95;;;4.80;;
35917;SDS011;22011;59.912;30.300;2023-02-26T04:10:56;7.72;;;4.38;;
35917;SDS011;22011;59.912;30.300;2023-02-26T04:13:25;7.78;;;4.25;;
35917;SDS011;22011;59.912;30.300;2023-02-26T04:15:53;6.00;;;3.95;;
35917;SDS011;22011;59.912;30.300;2023-02-26T04:18:20;6.75;;;4.50;;
35917;SDS011;22011;59.912;30.300;2023-02-26T04:20:49;6.97;;;4.15;;
35917;SDS011;22011;59.912;30.300;2023-02-26T04:23:18;7.47;;;5.55;;
35917;SDS011;22011;59.912;30.300;2023-02-26T04:25:45;7.60;;;3.72;;
35917;SDS011;22011;59.912;30.300;2023-02-26T04:28:15;6.33;;;3.67;;
35917;SDS011;22011;59.912;30.300;2023-02-26T04:30:43;8.50;;;4.55;;
35917;SDS011;22011;59.912;30.300;2023-02-26T04:33:12;5.53;;;3.20;;
35917;SDS011;22011;59.912;30.300;2023-02-26T04:35:40;7.95;;;3.80;;
35917;SDS011;22011;59.912;30.300;2023-02-26T04:38:08;5.38;;;3.63;;
35917;SDS011;22011;59.912;30.300;2023-02-26T04:40:37;5.35;;;4.00;;
35917;SDS011;22011;59.912;30.300;2023-02-26T04:43:08;6.57;;;3.22;;
35917;SDS011;22011;59.912;30.300;2023-02-26T04:45:44;6.57;;;3.38;;
35917;SDS011;22011;59.912;30.300;2023-02-26T04:48:11;5.60;;;3.97;;
35917;SDS011;22011;59.912;30.300;2023-02-26T04:50:39;6.70;;;3.45;;
35917;SDS011;22011;59.912;30.300;2023-02-26T04:53:07;5.00;;;3.30;;
35917;SDS011;22011;59.912;30.300;2023-02-26T04:55:38;5.38;;;2.90;;
35917;SDS011;22011;59.912;30.300;2023-02-26T04:58:06;6.18;;;3.17;;
35917;SDS011;22011;59.912;30.300;2023-02-26T05:00:35;4.68;;;2.50;;
35917;SDS011;22011;59.912;30.300;2023-02-26T05:03:02;4.35;;;2.65;;
35917;SDS011;22011;59.912;30.300;2023-02-26T05:05:30;4.47;;;3.10;;
35917;SDS011;22011;59.912;30.300;2023-02-26T05:07:58;4.68;;;2.80;;
35917;SDS011;22011;59.912;30.300;2023-02-26T05:10:25;6.47;;;3.03;;
35917;SDS011;22011;59.912;30.300;2023-02-26T05:12:54;4.22;;;2.60;;
35917;SDS011;22011;59.912;30.300;2023-02-26T05:15:22;5.82;;;2.97;;
35917;SDS011;22011;59.912;30.300;2023-02-26T05:17:50;3.95;;;2.60;;
35917;SDS011;22011;59.912;30.300;2023-02-26T05:20:19;5.00;;;3.28;;
35917;SDS011;22011;59.912;30.300;2023-02-26T05:22:47;3.88;;;2.60;;
35917;SDS011;22011;59.912;30.300;2023-02-26T05:25:16;4.57;;;2.50;;
35917;SDS011;22011;59.912;30.300;2023-02-26T05:27:44;5.22;;;2.47;;
35917;SDS011;22011;59.912;30.300;2023-02-26T05:30:14;5.00;;;2.95;;
35917;SDS011;22011;59.912;30.300;2023-02-26T05:35:10;4.22;;;2.38;;
35917;SDS011;22011;59.912;30.300;2023-02-26T05:37:38;6.30;;;2.95;;
35917;SDS011;22011;59.912;30.300;2023-02-26T05:40:07;4.28;;;2.78;;
35917;SDS011;22011;59.912;30.300;2023-02-26T05:42:36;4.80;;;2.90;;
35917;SDS011;22011;59.912;30.300;2023-02-26T05:45:05;4.13;;;2.50;;
35917;SDS011;22011;59.912;30.300;2023-02-26T05:47:35;5.65;;;3.25;;
35917;SDS011;22011;59.912;30.300;2023-02-26T05:50:03;6.72;;;3.10;;
35917;SDS011;22011;59.912;30.300;2023-02-26T05:52:32;4.28;;;2.72;;
35917;SDS011;22011;59.912;30.300;2023-02-26T05:55:00;6.18;;;2.90;;
35917;SDS011;22011;59.912;30.300;2023-02-26T05:57:28;4.10;;;2.58;;
35917;SDS011;22011;59.912;30.300;2023-02-26T05:59:55;4.55;;;3.03;;
35917;SDS011;22011;59.912;30.300;2023-02-26T06:02:23;6.95;;;3.17;;
35917;SDS011;22011;59.912;30.300;2023-02-26T06:04:52;4.00;;;2.90;;
35917;SDS011;22011;59.912;30.300;2023-02-26T06:07:20;4.57;;;2.77;;
35917;SDS011;22011;59.912;30.300;2023-02-26T06:09:49;4.03;;;2.40;;
35917;SDS011;22011;59.912;30.300;2023-02-26T06:12:17;6.65;;;3.08;;
35917;SDS011;22011;59.912;30.300;2023-02-26T06:14:44;3.95;;;2.78;;
35917;SDS011;22011;59.912;30.300;2023-02-26T06:17:12;5.03;;;3.20;;
35917;SDS011;22011;59.912;30.300;2023-02-26T06:19:39;6.07;;;2.40;;
35917;SDS011;22011;59.912;30.300;2023-02-26T06:22:08;5.43;;;2.53;;
35917;SDS011;22011;59.912;30.300;2023-02-26T06:24:36;4.38;;;2.38;;
35917;SDS011;22011;59.912;30.300;2023-02-26T06:27:03;4.07;;;2.40;;
35917;SDS011;22011;59.912;30.300;2023-02-26T06:29:31;10.88;;;3.55;;
35917;SDS011;22011;59.912;30.300;2023-02-26T06:31:59;4.15;;;2.40;;
35917;SDS011;22011;59.912;30.300;2023-02-26T06:34:26;4.82;;;2.60;;
35917;SDS011;22011;59.912;30.300;2023-02-26T06:36:54;4.95;;;2.88;;
35917;SDS011;22011;59.912;30.300;2023-02-26T06:39:23;4.38;;;2.10;;
35917;SDS011;22011;59.912;30.300;2023-02-26T06:41:50;4.38;;;2.45;;
35917;SDS011;22011;59.912;30.300;2023-02-26T06:44:18;8.05;;;2.50;;
35917;SDS011;22011;59.912;30.300;2023-02-26T06:46:45;3.70;;;2.10;;
35917;SDS011;22011;59.912;30.300;2023-02-26T06:49:13;7.30;;;3.22;;
35917;SDS011;22011;59.912;30.300;2023-02-26T06:51:40;3.58;;;2.45;;
35917;SDS011;22011;59.912;30.300;2023-02-26T06:54:08;4.00;;;2.78;;
35917;SDS011;22011;59.912;30.300;2023-02-26T06:56:37;4.53;;;2.83;;
35917;SDS011;22011;59.912;30.300;2023-02-26T06:59:04;7.07;;;2.90;;
35917;SDS011;22011;59.912;30.300;2023-02-26T07:01:32;4.20;;;2.58;;
35917;SDS011;22011;59.912;30.300;2023-02-26T07:04:00;4.43;;;2.17;;
35917;SDS011;22011;59.912;30.300;2023-02-26T07:06:27;4.15;;;2.42;;
35917;SDS011;22011;59.912;30.300;2023-02-26T07:08:55;3.35;;;2.30;;
35917;SDS011;22011;59.912;30.300;2023-02-26T07:11:22;4.30;;;2.47;;
35917;SDS011;22011;59.912;30.300;2023-02-26T07:13:51;4.00;;;2.15;;
35917;SDS011;22011;59.912;30.300;2023-02-26T07:16:19;3.88;;;2.78;;
35917;SDS011;22011;59.912;30.300;2023-02-26T07:18:47;3.85;;;2.45;;
35917;SDS011;22011;59.912;30.300;2023-02-26T07:21:15;3.55;;;2.13;;
35917;SDS011;22011;59.912;30.300;2023-02-26T07:23:42;7.00;;;2.50;;
35917;SDS011;22011;59.912;30.300;2023-02-26T07:26:09;6.65;;;2.25;;
35917;SDS011;22011;59.912;30.300;2023-02-26T07:28:37;3.10;;;2.10;;
35917;SDS011;22011;59.912;30.300;2023-02-26T07:31:06;4.22;;;2.72;;
35917;SDS011;22011;59.912;30.300;2023-02-26T07:33:33;4.30;;;2.35;;
35917;SDS011;22011;59.912;30.300;2023-02-26T07:36:03;3.95;;;2.10;;
35917;SDS011;22011;59.912;30.300;2023-02-26T07:38:31;5.43;;;2.80;;
35917;SDS011;22011;59.912;30.300;2023-02-26T07:40:58;3.20;;;1.90;;
35917;SDS011;22011;59.912;30.300;2023-02-26T07:43:26;4.50;;;2.55;;
35917;SDS011;22011;59.912;30.300;2023-02-26T07:45:53;4.50;;;2.28;;
35917;SDS011;22011;59.912;30.300;2023-02-26T07:48:22;3.30;;;2.15;;
35917;SDS011;22011;59.912;30.300;2023-02-26T07:50:50;6.55;;;1.83;;
35917;SDS011;22011;59.912;30.300;2023-02-26T07:53:18;4.07;;;2.22;;
35917;SDS011;22011;59.912;30.300;2023-02-26T07:55:46;4.00;;;2.03;;
35917;SDS011;22011;59.912;30.300;2023-02-26T07:58:14;3.55;;;2.03;;
35917;SDS011;22011;59.912;30.300;2023-02-26T08:00:41;4.10;;;2.47;;
35917;SDS011;22011;59.912;30.300;2023-02-26T08:03:09;2.53;;;1.70;;
35917;SDS011;22011;59.912;30.300;2023-02-26T08:05:38;3.75;;;2.00;;
35917;SDS011;22011;59.912;30.300;2023-02-26T08:08:05;4.13;;;2.40;;
35917;SDS011;22011;59.912;30.300;2023-02-26T08:10:33;3.85;;;1.85;;
35917;SDS011;22011;59.912;30.300;2023-02-26T08:13:00;3.42;;;2.00;;
35917;SDS011;22011;59.912;30.300;2023-02-26T08:15:28;8.93;;;2.05;;
35917;SDS011;22011;59.912;30.300;2023-02-26T08:17:56;3.85;;;1.98;;
35917;SDS011;22011;59.912;30.300;2023-02-26T08:20:23;3.55;;;2.05;;
35917;SDS011;22011;59.912;30.300;2023-02-26T08:22:52;4.18;;;2.10;;
35917;SDS011;22011;59.912;30.300;2023-02-26T08:25:20;4.55;;;2.20;;
35917;SDS011;22011;59.912;30.300;2023-02-26T08:27:49;5.68;;;2.13;;
35917;SDS011;22011;59.912;30.300;2023-02-26T08:30:17;3.65;;;1.77;;
35917;SDS011;22011;59.912;30.300;2023-02-26T08:32:45;6.30;;;2.20;;
35917;SDS011;22011;59.912;30.300;2023-02-26T08:35:14;2.28;;;1.63;;
35917;SDS011;22011;59.912;30.300;2023-02-26T08:37:42;5.55;;;2.38;;
35917;SDS011;22011;59.912;30.300;2023-02-26T08:40:12;4.88;;;2.80;;
35917;SDS011;22011;59.912;30.300;2023-02-26T08:42:40;3.30;;;2.03;;
35917;SDS011;22011;59.912;30.300;2023-02-26T08:45:08;3.28;;;2.20;;
35917;SDS011;22011;59.912;30.300;2023-02-26T08:47:37;3.88;;;2.30;;
35917;SDS011;22011;59.912;30.300;2023-02-26T08:50:06;3.92;;;2.53;;
35917;SDS011;22011;59.912;30.300;2023-02-26T08:52:34;5.05;;;2.55;;
35917;SDS011;22011;59.912;30.300;2023-02-26T08:55:03;5.38;;;2.97;;
35917;SDS011;22011;59.912;30.300;2023-02-26T08:57:32;5.13;;;2.72;;
35917;SDS011;22011;59.912;30.300;2023-02-26T09:00:00;3.53;;;2.10;;
35917;SDS011;22011;59.912;30.300;2023-02-26T09:02:29;6.83;;;2.70;;
35917;SDS011;22011;59.912;30.300;2023-02-26T09:04:57;4.82;;;2.60;;
35917;SDS011;22011;59.912;30.300;2023-02-26T09:07:25;3.38;;;2.40;;
35917;SDS011;22011;59.912;30.300;2023-02-26T09:09:52;4.65;;;2.20;;
35917;SDS011;22011;59.912;30.300;2023-02-26T09:12:20;3.85;;;2.33;;
35917;SDS011;22011;59.912;30.300;2023-02-26T09:14:49;5.80;;;2.80;;
35917;SDS011;22011;59.912;30.300;2023-02-26T09:17:16;5.13;;;2.70;;
35917;SDS011;22011;59.912;30.300;2023-02-26T09:19:44;4.50;;;2.63;;
35917;SDS011;22011;59.912;30.300;2023-02-26T09:22:11;4.22;;;2.25;;
35917;SDS011;22011;59.912;30.300;2023-02-26T09:24:39;3.67;;;2.60;;
35917;SDS011;22011;59.912;30.300;2023-02-26T09:27:06;6.88;;;2.45;;
35917;SDS011;22011;59.912;30.300;2023-02-26T09:29:34;4.70;;;2.70;;
35917;SDS011;22011;59.912;30.300;2023-02-26T09:32:03;4.35;;;2.47;;
35917;SDS011;22011;59.912;30.300;2023-02-26T09:34:33;7.15;;;2.70;;
35917;SDS011;22011;59.912;30.300;2023-02-26T09:37:01;3.85;;;2.25;;
35917;SDS011;22011;59.912;30.300;2023-02-26T09:39:29;6.85;;;2.50;;
35917;SDS011;22011;59.912;30.300;2023-02-26T09:41:58;5.80;;;2.40;;
35917;SDS011;22011;59.912;30.300;2023-02-26T09:44:33;5.30;;;2.85;;
35917;SDS011;22011;59.912;30.300;2023-02-26T09:47:06;4.53;;;2.60;;
35917;SDS011;22011;59.912;30.300;2023-02-26T09:49:45;3.75;;;2.53;;
35917;SDS011;22011;59.912;30.300;2023-02-26T09:52:21;4.03;;;2.72;;
35917;SDS011;22011;59.912;30.300;2023-02-26T09:54:52;5.60;;;2.20;;
35917;SDS011;22011;59.912;30.300;2023-02-26T09:57:28;3.30;;;2.42;;
35917;SDS011;22011;59.912;30.300;2023-02-26T09:59:57;3.65;;;2.42;;
35917;SDS011;22011;59.912;30.300;2023-02-26T10:02:30;3.95;;;2.22;;
35917;SDS011;22011;59.912;30.300;2023-02-26T10:05:08;3.30;;;2.25;;
35917;SDS011;22011;59.912;30.300;2023-02-26T10:07:44;4.18;;;2.45;;
35917;SDS011;22011;59.912;30.300;2023-02-26T10:10:23;4.97;;;3.08;;
35917;SDS011;22011;59.912;30.300;2023-02-26T10:12:58;5.50;;;2.55;;
35917;SDS011;22011;59.912;30.300;2023-02-26T10:15:28;4.20;;;2.38;;
35917;SDS011;22011;59.912;30.300;2023-02-26T10:18:05;5.35;;;2.67;;
35917;SDS011;22011;59.912;30.300;2023-02-26T10:20:38;3.85;;;2.30;;
35917;SDS011;22011;59.912;30.300;2023-02-26T10:23:18;4.13;;;2.80;;
35917;SDS011;22011;59.912;30.300;2023-02-26T10:25:52;5.10;;;2.80;;
35917;SDS011;22011;59.912;30.300;2023-02-26T10:28:37;3.90;;;2.65;;
35917;SDS011;22011;59.912;30.300;2023-02-26T10:31:11;4.82;;;2.92;;
35917;SDS011;22011;59.912;30.300;2023-02-26T10:33:55;8.88;;;2.53;;
35917;SDS011;22011;59.912;30.300;2023-02-26T10:36:36;4.65;;;2.50;;
35917;SDS011;22011;59.912;30.300;2023-02-26T10:39:18;3.55;;;2.83;;
35917;SDS011;22011;59.912;30.300;2023-02-26T10:41:53;3.28;;;2.38;;
35917;SDS011;22011;59.912;30.300;2023-02-26T10:44:24;5.55;;;3.10;;
35917;SDS011;22011;59.912;30.300;2023-02-26T10:46:58;4.03;;;2.90;;
35917;SDS011;22011;59.912;30.300;2023-02-26T10:49:42;4.60;;;2.90;;
35917;SDS011;22011;59.912;30.300;2023-02-26T10:52:19;5.32;;;2.75;;
35917;SDS011;22011;59.912;30.300;2023-02-26T10:55:01;3.40;;;2.08;;
35917;SDS011;22011;59.912;30.300;2023-02-26T10:57:33;6.18;;;2.60;;
35917;SDS011;22011;59.912;30.300;2023-02-26T11:00:04;3.08;;;2.17;;
35917;SDS011;22011;59.912;30.300;2023-02-26T11:02:43;7.22;;;2.53;;
35917;SDS011;22011;59.912;30.300;2023-02-26T11:05:15;3.53;;;1.95;;
35917;SDS011;22011;59.912;30.300;2023-02-26T11:07:47;5.13;;;2.33;;
35917;SDS011;22011;59.912;30.300;2023-02-26T11:10:18;4.05;;;2.25;;
35917;SDS011;22011;59.912;30.300;2023-02-26T11:12:47;3.42;;;1.92;;
35917;SDS011;22011;59.912;30.300;2023-02-26T11:15:16;4.97;;;1.73;;
35917;SDS011;22011;59.912;30.300;2023-02-26T11:17:47;4.28;;;2.38;;
35917;SDS011;22011;59.912;30.300;2023-02-26T11:20:25;4.55;;;2.25;;
35917;SDS011;22011;59.912;30.300;2023-02-26T11:22:59;5.18;;;2.45;;
35917;SDS011;22011;59.912;30.300;2023-02-26T11:25:30;4.13;;;2.30;;
35917;SDS011;22011;59.912;30.300;2023-02-26T11:28:01;3.50;;;1.83;;
35917;SDS011;22011;59.912;30.300;2023-02-26T11:30:31;3.85;;;1.83;;
35917;SDS011;22011;59.912;30.300;2023-02-26T11:33:10;4.30;;;2.00;;
35917;SDS011;22011;59.912;30.300;2023-02-26T11:35:45;4.00;;;2.30;;
35917;SDS011;22011;59.912;30.300;2023-02-26T11:38:18;3.25;;;1.92;;
35917;SDS011;22011;59.912;30.300;2023-02-26T11:40:50;3.70;;;1.98;;
35917;SDS011;22011;59.912;30.300;2023-02-26T11:43:21;2.25;;;1.70;;
35917;SDS011;22011;59.912;30.300;2023-02-26T11:45:51;3.33;;;2.00;;
35917;SDS011;22011;59.912;30.300;2023-02-26T11:48:22;2.15;;;1.50;;
35917;SDS011;22011;59.912;30.300;2023-02-26T11:50:54;4.10;;;2.15;;
35917;SDS011;22011;59.912;30.300;2023-02-26T11:53:24;2.17;;;1.67;;
35917;SDS011;22011;59.912;30.300;2023-02-26T11:55:58;2.60;;;1.80;;
35917;SDS011;22011;59.912;30.300;2023-02-26T11:58:28;3.25;;;1.67;;
35917;SDS011;22011;59.912;30.300;2023-02-26T12:01:01;2.30;;;1.90;;
35917;SDS011;22011;59.912;30.300;2023-02-26T12:03:30;3.50;;;1.83;;
35917;SDS011;22011;59.912;30.300;2023-02-26T12:06:01;4.45;;;2.05;;
35917;SDS011;22011;59.912;30.300;2023-02-26T12:08:30;3.83;;;1.50;;
35917;SDS011;22011;59.912;30.300;2023-02-26T12:11:06;2.20;;;1.48;;
35917;SDS011;22011;59.912;30.300;2023-02-26T12:13:46;3.13;;;1.80;;
35917;SDS011;22011;59.912;30.300;2023-02-26T12:16:32;2.13;;;1.58;;
35917;SDS011;22011;59.912;30.300;2023-02-26T12:19:11;4.93;;;1.50;;
35917;SDS011;22011;59.912;30.300;2023-02-26T12:21:55;2.78;;;1.73;;
35917;SDS011;22011;59.912;30.300;2023-02-26T12:24:36;3.70;;;2.13;;
35917;SDS011;22011;59.912;30.300;2023-02-26T12:27:20;2.85;;;1.75;;
35917;SDS011;22011;59.912;30.300;2023-02-26T12:30:01;3.03;;;1.77;;
35917;SDS011;22011;59.912;30.300;2023-02-26T12:32:43;4.32;;;2.50;;
35917;SDS011;22011;59.912;30.300;2023-02-26T12:35:38;5.45;;;2.20;;
35917;SDS011;22011;59.912;30.300;2023-02-26T12:38:17;2.97;;;2.03;;
35917;SDS011;22011;59.912;30.300;2023-02-26T12:43:50;4.15;;;2.92;;
35917;SDS011;22011;59.912;30.300;2023-02-26T12:46:24;3.65;;;2.15;;
35917;SDS011;22011;59.912;30.300;2023-02-26T12:49:13;7.32;;;2.55;;
35917;SDS011;22011;59.912;30.300;2023-02-26T12:52:05;3.92;;;2.50;;
35917;SDS011;22011;59.912;30.300;2023-02-26T12:54:53;4.47;;;2.65;;
35917;SDS011;22011;59.912;30.300;2023-02-26T12:57:42;6.78;;;2.67;;
35917;SDS011;22011;59.912;30.300;2023-02-26T13:03:31;5.25;;;2.50;;
35917;SDS011;22011;59.912;30.300;2023-02-26T13:09:14;3.75;;;2.30;;
35917;SDS011;22011;59.912;30.300;2023-02-26T13:11:57;3.78;;;2.90;;
35917;SDS011;22011;59.912;30.300;2023-02-26T13:14:39;6.85;;;3.03;;
35917;SDS011;22011;59.912;30.300;2023-02-26T13:17:16;5.13;;;2.97;;
35917;SDS011;22011;59.912;30.300;2023-02-26T13:19:52;4.30;;;2.60;;
35917;SDS011;22011;59.912;30.300;2023-02-26T13:22:24;4.38;;;2.60;;
35917;SDS011;22011;59.912;30.300;2023-02-26T13:24:58;4.38;;;2.58;;
35917;SDS011;22011;59.912;30.300;2023-02-26T13:27:31;4.88;;;2.97;;
35917;SDS011;22011;59.912;30.300;2023-02-26T13:30:14;4.88;;;2.83;;
35917;SDS011;22011;59.912;30.300;2023-02-26T13:32:46;5.38;;;3.08;;
35917;SDS011;22011;59.912;30.300;2023-02-26T13:35:18;5.30;;;3.10;;
35917;SDS011;22011;59.912;30.300;2023-02-26T13:37:49;4.43;;;2.80;;
35917;SDS011;22011;59.912;30.300;2023-02-26T13:40:27;6.05;;;3.33;;
35917;SDS011;22011;59.912;30.300;2023-02-26T13:43:05;4.28;;;2.72;;
35917;SDS011;22011;59.912;30.300;2023-02-26T13:45:44;6.68;;;3.50;;
35917;SDS011;22011;59.912;30.300;2023-02-26T13:48:21;3.92;;;2.72;;
35917;SDS011;22011;59.912;30.300;2023-02-26T13:50:59;4.40;;;2.53;;
35917;SDS011;22011;59.912;30.300;2023-02-26T13:53:51;4.18;;;2.75;;
35917;SDS011;22011;59.912;30.300;2023-02-26T13:56:21;4.93;;;2.70;;
35917;SDS011;22011;59.912;30.300;2023-02-26T13:59:25;5.18;;;2.85;;
35917;SDS011;22011;59.912;30.300;2023-02-26T14:01:59;10.88;;;2.65;;
35917;SDS011;22011;59.912;30.300;2023-02-26T14:04:28;4.55;;;2.35;;
35917;SDS011;22011;59.912;30.300;2023-02-26T14:06:57;4.20;;;2.78;;
35917;SDS011;22011;59.912;30.300;2023-02-26T14:09:29;6.40;;;2.63;;
35917;SDS011;22011;59.912;30.300;2023-02-26T14:12:23;5.68;;;2.92;;
35917;SDS011;22011;59.912;30.300;2023-02-26T14:18:17;6.10;;;2.70;;
35917;SDS011;22011;59.912;30.300;2023-02-26T14:20:47;4.10;;;2.50;;
35917;SDS011;22011;59.912;30.300;2023-02-26T14:26:04;4.00;;;2.60;;
35917;SDS011;22011;59.912;30.300;2023-02-26T14:28:42;3.15;;;2.30;;
35917;SDS011;22011;59.912;30.300;2023-02-26T14:31:14;4.10;;;2.45;;
35917;SDS011;22011;59.912;30.300;2023-02-26T14:33:47;4.97;;;2.60;;
35917;SDS011;22011;59.912;30.300;2023-02-26T14:36:29;3.10;;;2.15;;
35917;SDS011;22011;59.912;30.300;2023-02-26T14:39:02;4.45;;;2.30;;
35917;SDS011;22011;59.912;30.300;2023-02-26T14:41:37;4.10;;;2.70;;
35917;SDS011;22011;59.912;30.300;2023-02-26T14:44:07;3.53;;;2.42;;
35917;SDS011;22011;59.912;30.300;2023-02-26T14:46:42;3.88;;;2.40;;
35917;SDS011;22011;59.912;30.300;2023-02-26T14:49:13;6.40;;;2.22;;
35917;SDS011;22011;59.912;30.300;2023-02-26T14:51:47;5.75;;;2.13;;
35917;SDS011;22011;59.912;30.300;2023-02-26T14:54:43;7.47;;;2.53;;
35917;SDS011;22011;59.912;30.300;2023-02-26T14:57:22;5.20;;;2.60;;
35917;SDS011;22011;59.912;30.300;2023-02-26T15:00:03;3.03;;;1.98;;
35917;SDS011;22011;59.912;30.300;2023-02-26T15:02:50;4.75;;;2.58;;
35917;SDS011;22011;59.912;30.300;2023-02-26T15:05:39;5.38;;;2.60;;
35917;SDS011;22011;59.912;30.300;2023-02-26T15:08:30;9.05;;;2.30;;
35917;SDS011;22011;59.912;30.300;2023-02-26T15:11:13;3.53;;;1.88;;
35917;SDS011;22011;59.912;30.300;2023-02-26T15:13:56;2.55;;;2.13;;
35917;SDS011;22011;59.912;30.300;2023-02-26T15:16:39;2.90;;;1.92;;
35917;SDS011;22011;59.912;30.300;2023-02-26T15:19:21;3.47;;;2.40;;
35917;SDS011;22011;59.912;30.300;2023-02-26T15:22:02;3.03;;;2.00;;
35917;SDS011;22011;59.912;30.300;2023-02-26T15:24:42;4.65;;;2.30;;
35917;SDS011;22011;59.912;30.300;2023-02-26T15:27:14;3.85;;;2.08;;
35917;SDS011;22011;59.912;30.300;2023-02-26T15:29:43;3.65;;;2.53;;
35917;SDS011;22011;59.912;30.300;2023-02-26T15:32:14;3.60;;;2.25;;